Time;durP1;ratioP1;P1;durP2;ratioP2;P2;SDS_P1;SDS_P2;PMS_P1;PMS_P2;Temp;Humidity;BMP_temperature;BMP_pressure;BME280_temperature;BME280_humidity;BME280_pressure;Samples;Min_cycle;Max_cycle;Signal;HPM_P1;HPM_P2
2022/10/02 00:01:48;;;;;;;1.10;1.00;;;23.60;66.10;;;;;;5014665;28;20444;-85
2022/10/02 00:04:21;;;;;;;1.00;0.90;;;23.60;66.10;;;;;;5014689;28;20463;-85
2022/10/02 00:06:49;;;;;;;1.00;0.90;;;23.60;66.10;;;;;;5014640;28;20446;-87
2022/10/02 00:09:24;;;;;;;2.80;1.00;;;23.60;66.10;;;;;;5014241;28;20450;-86
2022/10/02 00:11:56;;;;;;;1.17;1.00;;;23.60;66.10;;;;;;5013949;28;20489;-86
2022/10/02 00:14:26;;;;;;;1.27;1.17;;;23.70;66.20;;;;;;5014265;28;20487;-85
2022/10/02 00:16:56;;;;;;;1.00;0.90;;;23.60;66.10;;;;;;5013949;28;20448;-85
2022/10/02 00:19:23;;;;;;;1.10;0.90;;;23.60;66.10;;;;;;5014440;28;20439;-85
2022/10/02 00:22:19;;;;;;;1.20;1.10;;;23.60;66.10;;;;;;5014316;28;20452;-87
2022/10/02 00:24:57;;;;;;;1.00;0.90;;;23.60;66.00;;;;;;5009826;28;20479;-85
2022/10/02 00:27:42;;;;;;;1.00;0.87;;;23.60;66.10;;;;;;5013775;28;20810;-88
2022/10/02 00:30:12;;;;;;;1.00;0.90;;;23.60;66.10;;;;;;5006034;28;20436;-88
2022/10/02 00:32:47;;;;;;;1.10;1.00;;;23.60;66.10;;;;;;4994364;28;20452;-87
2022/10/02 00:35:48;;;;;;;1.13;1.03;;;23.60;66.10;;;;;;4994455;28;20491;-87
2022/10/02 00:38:24;;;;;;;1.20;1.00;;;23.60;66.00;;;;;;5000115;28;20435;-87
2022/10/02 00:41:16;;;;;;;1.37;0.90;;;23.60;66.10;;;;;;4994533;28;20642;-87
2022/10/02 00:43:53;;;;;;;1.63;0.90;;;23.60;66.10;;;;;;4998312;28;20454;-84
2022/10/02 00:46:45;;;;;;;1.00;0.90;;;23.60;66.10;;;;;;5013936;28;20526;-84
2022/10/02 00:49:28;;;;;;;0.93;0.80;;;23.60;66.10;;;;;;5002551;28;20947;-87
2022/10/02 00:52:09;;;;;;;1.03;0.93;;;23.60;66.10;;;;;;4999556;28;20486;-84
2022/10/02 00:55:01;;;;;;;1.20;1.00;;;23.60;66.10;;;;;;4998908;28;20486;-85
2022/10/02 00:57:46;;;;;;;1.10;1.00;;;23.60;66.10;;;;;;4995383;28;20447;-85
2022/10/02 01:00:15;;;;;;;1.00;0.90;;;23.60;66.10;;;;;;5009167;28;20459;-85
2022/10/02 01:02:54;;;;;;;0.80;0.80;;;23.50;66.00;;;;;;5004922;28;20439;-85
2022/10/02 01:05:21;;;;;;;0.90;0.80;;;23.60;66.10;;;;;;5008245;28;20431;-86
2022/10/02 01:07:51;;;;;;;1.00;0.90;;;23.50;66.00;;;;;;5002446;28;20807;-89
2022/10/02 01:10:21;;;;;;;1.00;0.90;;;23.60;66.10;;;;;;4994197;28;20491;-85
2022/10/02 01:12:49;;;;;;;1.10;1.00;;;23.60;67.00;;;;;;5005460;28;20494;-87
2022/10/02 01:15:18;;;;;;;1.20;1.00;;;23.50;66.00;;;;;;4995074;28;20480;-85
2022/10/02 01:17:46;;;;;;;1.33;0.93;;;23.60;66.10;;;;;;4993440;28;20444;-85
2022/10/02 01:20:16;;;;;;;0.90;0.77;;;23.50;66.10;;;;;;4997820;28;20443;-86
2022/10/02 01:22:52;;;;;;;0.90;0.80;;;23.60;66.10;;;;;;5007909;28;20485;-87
2022/10/02 01:25:20;;;;;;;1.03;0.93;;;23.60;66.20;;;;;;5017064;28;20479;-88
2022/10/02 01:27:47;;;;;;;1.00;0.90;;;23.60;66.10;;;;;;5010950;28;20447;-86
2022/10/02 01:30:17;;;;;;;1.00;0.90;;;23.50;66.10;;;;;;5006834;28;20439;-86
2022/10/02 01:32:49;;;;;;;0.90;0.80;;;23.50;66.10;;;;;;5002764;28;20470;-87
2022/10/02 01:35:17;;;;;;;1.00;0.90;;;23.60;66.10;;;;;;5004160;28;20482;-87
2022/10/02 01:37:46;;;;;;;0.93;0.83;;;23.50;66.00;;;;;;5004896;28;20446;-87
2022/10/02 01:40:24;;;;;;;1.40;1.20;;;23.50;66.10;;;;;;5013001;28;20931;-86
2022/10/02 01:42:52;;;;;;;1.00;0.90;;;23.70;66.30;;;;;;5007309;28;20941;-88
2022/10/02 01:45:23;;;;;;;0.90;0.80;;;23.60;66.10;;;;;;5011520;28;20439;-87
2022/10/02 01:47:59;;;;;;;0.80;0.80;;;23.60;66.10;;;;;;5005887;28;20454;-87
2022/10/02 01:50:32;;;;;;;1.10;1.00;;;23.60;66.10;;;;;;4985005;28;20431;-87
2022/10/02 01:53:07;;;;;;;1.13;1.03;;;23.60;66.10;;;;;;5005789;28;20430;-87
2022/10/02 01:55:44;;;;;;;1.10;1.00;;;23.50;66.10;;;;;;5004435;28;20483;-88
2022/10/02 01:58:24;;;;;;;0.90;0.80;;;23.70;66.30;;;;;;5005491;28;20946;-85
2022/10/02 02:01:03;;;;;;;0.80;0.80;;;23.60;66.10;;;;;;4997362;28;20436;-87
2022/10/02 02:03:40;;;;;;;1.30;1.00;;;23.60;66.20;;;;;;5005130;28;20458;-87
2022/10/02 02:06:15;;;;;;;1.00;0.90;;;23.50;66.10;;;;;;5003109;28;20454;-87
2022/10/02 02:08:49;;;;;;;0.90;0.70;;;23.50;66.10;;;;;;5008397;28;20439;-87
2022/10/02 02:11:19;;;;;;;1.50;1.00;;;23.60;66.20;;;;;;5014716;28;20443;-87
2022/10/02 02:13:53;;;;;;;0.90;0.80;;;23.50;66.10;;;;;;5010199;28;20935;-86
2022/10/02 02:16:27;;;;;;;0.93;0.80;;;23.40;66.00;;;;;;4997044;28;20494;-87
2022/10/02 02:19:00;;;;;;;1.00;0.90;;;23.50;66.20;;;;;;5010216;28;20442;-88
2022/10/02 02:21:30;;;;;;;0.93;0.83;;;23.50;66.10;;;;;;4996843;28;20462;-88
2022/10/02 02:23:59;;;;;;;0.87;0.80;;;23.50;66.20;;;;;;5003751;28;20479;-86
2022/10/02 02:26:30;;;;;;;1.00;0.90;;;23.50;66.20;;;;;;5002787;28;20439;-89
2022/10/02 02:29:03;;;;;;;0.90;0.80;;;23.50;66.10;;;;;;5003323;28;20885;-87
2022/10/02 02:31:37;;;;;;;0.90;0.80;;;23.50;66.20;;;;;;5007492;28;20839;-87
2022/10/02 02:34:08;;;;;;;1.13;0.80;;;23.50;66.10;;;;;;5010287;28;20458;-86
2022/10/02 02:36:38;;;;;;;1.00;0.90;;;23.60;66.30;;;;;;5008049;28;20494;-87
2022/10/02 02:39:10;;;;;;;1.17;1.03;;;23.50;66.20;;;;;;5010059;28;20440;-87
2022/10/02 02:41:43;;;;;;;0.80;0.73;;;23.50;66.20;;;;;;4996675;28;20475;-88
2022/10/02 02:44:16;;;;;;;1.00;0.90;;;23.50;66.20;;;;;;5015691;28;20436;-88
2022/10/02 02:47:03;;;;;;;0.87;0.83;;;23.50;66.20;;;;;;5016002;28;20451;-85
2022/10/02 02:49:37;;;;;;;1.00;0.90;;;23.50;66.30;;;;;;5016348;28;20451;-88
2022/10/02 02:52:09;;;;;;;0.90;0.80;;;23.50;66.30;;;;;;5015980;28;20448;-85
2022/10/02 02:54:40;;;;;;;1.00;0.90;;;23.50;66.20;;;;;;5015825;28;21009;-85
2022/10/02 02:57:10;;;;;;;1.00;0.90;;;23.50;66.20;;;;;;5015857;28;20447;-85
2022/10/02 02:59:38;;;;;;;1.63;0.90;;;23.50;66.30;;;;;;5016276;28;20435;-89
2022/10/02 03:02:05;;;;;;;0.80;0.80;;;23.50;66.30;;;;;;5015690;28;20440;-88
2022/10/02 03:04:32;;;;;;;1.03;0.93;;;23.50;66.30;;;;;;5015561;28;20788;-86
2022/10/02 03:07:02;;;;;;;0.93;0.83;;;23.50;66.30;;;;;;5015648;28;20450;-88
2022/10/02 03:09:32;;;;;;;1.00;0.90;;;23.50;66.20;;;;;;5015443;28;20915;-86
2022/10/02 03:12:07;;;;;;;1.00;0.90;;;23.50;66.30;;;;;;5015503;28;20446;-85
2022/10/02 03:14:55;;;;;;;1.10;0.97;;;23.50;66.30;;;;;;5015426;28;20844;-85
2022/10/02 03:17:40;;;;;;;1.00;0.90;;;23.60;66.40;;;;;;5015495;28;20444;-85
2022/10/02 03:20:15;;;;;;;1.00;0.90;;;23.50;66.20;;;;;;5015517;28;20439;-85
2022/10/02 03:22:50;;;;;;;0.83;0.73;;;23.50;66.30;;;;;;5015402;28;20442;-85
2022/10/02 03:25:23;;;;;;;1.10;0.90;;;23.50;66.30;;;;;;5015138;28;20481;-89
2022/10/02 03:27:56;;;;;;;0.80;0.70;;;23.50;66.30;;;;;;5015248;28;20440;-86
2022/10/02 03:30:25;;;;;;;1.10;1.00;;;23.50;66.40;;;;;;5015268;28;20814;-85
2022/10/02 03:32:55;;;;;;;0.80;0.80;;;23.50;66.40;;;;;;5014739;28;20467;-88
2022/10/02 03:35:23;;;;;;;0.83;0.80;;;23.50;66.30;;;;;;5015212;28;20479;-85
2022/10/02 03:37:52;;;;;;;0.97;0.87;;;23.50;66.40;;;;;;5015284;28;20447;-85
2022/10/02 03:40:22;;;;;;;0.90;0.83;;;23.50;66.40;;;;;;5015200;28;20440;-85
2022/10/02 03:42:50;;;;;;;1.33;1.00;;;23.50;66.30;;;;;;5014984;28;20503;-88
2022/10/02 03:45:18;;;;;;;1.00;0.90;;;23.50;66.40;;;;;;5014049;28;20955;-88
2022/10/02 03:47:46;;;;;;;0.90;0.80;;;23.50;66.40;;;;;;5014845;28;20452;-88
2022/10/02 03:50:13;;;;;;;1.00;0.80;;;23.50;66.40;;;;;;5014655;28;20535;-85
2022/10/02 03:52:41;;;;;;;1.00;0.90;;;23.50;66.40;;;;;;5014881;28;20810;-85
2022/10/02 03:55:20;;;;;;;1.50;1.00;;;23.50;66.40;;;;;;5014554;28;20475;-85
2022/10/02 03:57:47;;;;;;;1.20;0.90;;;23.50;66.40;;;;;;5014301;28;20490;-85
2022/10/02 04:00:18;;;;;;;0.80;0.80;;;23.50;66.40;;;;;;5014647;28;20442;-85
2022/10/02 04:02:49;;;;;;;1.00;0.90;;;23.50;66.40;;;;;;5014369;28;20550;-86
2022/10/02 04:05:35;;;;;;;0.83;0.80;;;23.50;66.40;;;;;;5090406;27;20518;-84
2022/10/02 04:08:09;;;;;;;1.10;1.00;;;23.50;66.50;;;;;;5090290;28;20452;-87
2022/10/02 04:10:43;;;;;;;1.00;0.90;;;23.50;66.50;;;;;;5090217;28;20475;-85
2022/10/02 04:13:16;;;;;;;0.90;0.70;;;23.50;66.50;;;;;;5090374;28;20474;-85
2022/10/02 04:15:58;;;;;;;1.00;0.80;;;23.50;66.50;;;;;;5090266;28;20455;-84
2022/10/02 04:18:29;;;;;;;0.90;0.80;;;23.70;66.60;;;;;;5090583;28;20448;-84
2022/10/02 04:21:00;;;;;;;0.97;0.80;;;23.50;66.50;;;;;;5090805;28;20435;-87
2022/10/02 04:23:32;;;;;;;0.97;0.87;;;23.50;66.50;;;;;;5090662;28;21002;-84
2022/10/02 04:26:04;;;;;;;0.90;0.80;;;23.50;66.50;;;;;;5090730;28;20431;-84
2022/10/02 04:28:37;;;;;;;0.90;0.70;;;23.50;66.50;;;;;;5090839;28;20440;-84
2022/10/02 04:31:10;;;;;;;1.00;0.90;;;23.50;66.50;;;;;;5090709;28;20777;-85
2022/10/02 04:33:37;;;;;;;1.00;0.90;;;23.50;66.90;;;;;;5090634;28;20468;-84
2022/10/02 04:36:16;;;;;;;0.90;0.83;;;23.50;66.60;;;;;;5090539;28;20448;-86
2022/10/02 04:38:59;;;;;;;1.03;0.90;;;23.50;66.50;;;;;;5090369;28;20444;-85
2022/10/02 04:41:39;;;;;;;0.90;0.77;;;23.50;66.50;;;;;;5090656;28;20444;-85
2022/10/02 04:44:17;;;;;;;0.90;0.70;;;23.50;66.60;;;;;;5090509;28;20483;-84
2022/10/02 04:46:59;;;;;;;0.87;0.83;;;23.50;66.60;;;;;;5090355;28;20432;-87
2022/10/02 04:49:57;;;;;;;1.00;0.90;;;23.50;66.60;;;;;;5090322;28;20440;-88
2022/10/02 04:52:48;;;;;;;0.93;0.80;;;23.50;66.50;;;;;;5078145;28;20484;-85
2022/10/02 04:55:40;;;;;;;0.80;0.70;;;23.50;67.40;;;;;;5090395;28;20529;-87
2022/10/02 04:58:33;;;;;;;1.00;0.80;;;23.50;66.60;;;;;;5090131;28;20443;-84
2022/10/02 05:01:14;;;;;;;1.03;0.87;;;23.50;66.60;;;;;;5090094;28;20454;-84
2022/10/02 05:04:04;;;;;;;1.03;0.93;;;23.50;66.70;;;;;;5089689;28;20479;-84
2022/10/02 05:06:45;;;;;;;0.90;0.77;;;23.50;66.60;;;;;;5090037;28;20766;-84
2022/10/02 05:09:21;;;;;;;1.00;0.80;;;23.50;66.60;;;;;;5090240;28;20493;-85
2022/10/02 05:12:10;;;;;;;0.90;0.80;;;23.50;66.60;;;;;;5089936;28;20435;-84
2022/10/02 05:15:02;;;;;;;0.90;0.80;;;23.50;66.60;;;;;;5088832;28;20443;-87
2022/10/02 05:17:49;;;;;;;1.00;0.80;;;23.50;66.70;;;;;;5074641;28;21034;-84
2022/10/02 05:20:48;;;;;;;1.20;0.90;;;23.50;67.60;;;;;;5076236;28;20429;-84
2022/10/02 05:23:31;;;;;;;0.80;0.80;;;23.50;66.70;;;;;;5070249;28;20452;-84
2022/10/02 05:26:22;;;;;;;0.90;0.83;;;23.50;66.70;;;;;;5076055;28;20441;-88
2022/10/02 05:29:10;;;;;;;1.00;0.90;;;23.50;66.80;;;;;;5073892;28;20950;-85
2022/10/02 05:31:53;;;;;;;0.90;0.80;;;23.50;66.70;;;;;;5076077;28;20437;-88
2022/10/02 05:34:37;;;;;;;1.00;0.90;;;23.40;66.70;;;;;;5075656;28;20460;-85
2022/10/02 05:37:31;;;;;;;0.80;0.70;;;23.50;66.80;;;;;;5075944;28;20436;-87
2022/10/02 05:40:07;;;;;;;1.00;0.90;;;23.50;66.70;;;;;;5070908;28;20971;-87
2022/10/02 05:42:38;;;;;;;1.00;0.90;;;23.50;66.80;;;;;;5076172;28;20439;-85
2022/10/02 05:45:20;;;;;;;1.20;0.83;;;23.40;66.70;;;;;;5075704;28;20480;-85
2022/10/02 05:47:48;;;;;;;0.80;0.70;;;23.50;66.80;;;;;;5075683;28;20463;-84
2022/10/02 05:50:18;;;;;;;1.00;0.80;;;23.40;66.70;;;;;;5075716;28;20445;-87
2022/10/02 05:52:53;;;;;;;0.80;0.70;;;23.40;66.70;;;;;;5075605;28;20447;-84
2022/10/02 05:55:25;;;;;;;1.03;0.93;;;23.40;66.70;;;;;;5075556;28;20443;-84
2022/10/02 05:57:57;;;;;;;0.80;0.70;;;23.40;66.70;;;;;;5075392;28;20441;-85
2022/10/02 06:00:31;;;;;;;1.00;0.80;;;23.40;66.70;;;;;;5075642;28;20436;-85
2022/10/02 06:03:08;;;;;;;0.83;0.73;;;23.50;66.80;;;;;;5075274;28;20472;-84
2022/10/02 06:05:45;;;;;;;0.90;0.80;;;23.40;66.70;;;;;;5075130;28;20990;-84
2022/10/02 06:08:16;;;;;;;0.80;0.60;;;23.50;66.80;;;;;;5074387;28;20441;-87
2022/10/02 06:10:48;;;;;;;1.00;0.80;;;23.50;66.80;;;;;;5075275;28;20440;-87
2022/10/02 06:13:22;;;;;;;0.80;0.70;;;23.40;66.70;;;;;;5075233;28;20915;-84
2022/10/02 06:15:53;;;;;;;0.90;0.80;;;23.40;66.70;;;;;;5075263;28;20437;-86
2022/10/02 06:18:23;;;;;;;1.00;0.90;;;23.40;66.70;;;;;;5075226;28;20448;-84
2022/10/02 06:20:53;;;;;;;1.00;0.70;;;23.40;66.70;;;;;;5075144;28;20494;-85
2022/10/02 06:23:25;;;;;;;0.80;0.70;;;23.50;66.80;;;;;;5074858;28;20940;-85
2022/10/02 06:25:56;;;;;;;0.90;0.80;;;23.40;66.70;;;;;;5075008;28;20490;-84
2022/10/02 06:28:29;;;;;;;0.80;0.70;;;23.40;67.60;;;;;;5073802;28;20441;-85
2022/10/02 06:31:01;;;;;;;0.90;0.80;;;23.50;66.80;;;;;;5074789;28;20432;-87
2022/10/02 06:33:32;;;;;;;0.80;0.70;;;23.40;66.80;;;;;;5074920;28;20457;-84
2022/10/02 06:36:26;;;;;;;0.90;0.80;;;23.40;66.70;;;;;;5074675;28;20498;-86
2022/10/02 06:39:16;;;;;;;1.00;0.73;;;23.50;66.70;;;;;;5074796;28;20430;-84
2022/10/02 06:41:53;;;;;;;1.00;0.80;;;23.50;66.80;;;;;;5074816;28;20528;-87
2022/10/02 06:44:26;;;;;;;1.00;0.87;;;23.40;66.80;;;;;;5074664;28;20877;-85
2022/10/02 06:47:14;;;;;;;1.07;0.90;;;23.40;66.80;;;;;;5074523;28;20452;-85
2022/10/02 06:49:56;;;;;;;1.20;1.00;;;23.50;66.80;;;;;;5074309;28;20440;-85
2022/10/02 06:52:32;;;;;;;0.80;0.67;;;23.40;66.80;;;;;;5074381;28;20445;-88
2022/10/02 06:55:16;;;;;;;0.77;0.70;;;23.40;66.80;;;;;;5074708;28;20511;-84
2022/10/02 06:58:07;;;;;;;0.80;0.80;;;23.40;66.80;;;;;;5074614;28;20498;-86
2022/10/02 07:00:44;;;;;;;0.80;0.70;;;23.40;66.70;;;;;;5074491;28;20436;-85
2022/10/02 07:03:39;;;;;;;1.00;0.80;;;23.40;66.80;;;;;;5074269;28;20467;-84
2022/10/02 07:06:20;;;;;;;0.80;0.80;;;23.40;66.80;;;;;;5074043;28;20468;-84
2022/10/02 07:09:02;;;;;;;1.00;0.90;;;23.50;66.90;;;;;;5074044;28;20440;-85
2022/10/02 07:11:35;;;;;;;0.80;0.73;;;23.40;66.80;;;;;;5074220;28;20452;-85
2022/10/02 07:14:16;;;;;;;0.97;0.87;;;23.40;66.80;;;;;;5074421;28;20557;-84
2022/10/02 07:16:58;;;;;;;1.10;1.00;;;23.40;66.80;;;;;;5073825;28;20450;-91
2022/10/02 07:19:52;;;;;;;1.10;1.00;;;23.40;66.90;;;;;;5073819;28;20444;-91
2022/10/02 07:22:31;;;;;;;0.80;0.70;;;23.50;67.10;;;;;;5073765;28;20440;-86
2022/10/02 07:25:17;;;;;;;1.00;0.90;;;23.40;67.10;;;;;;5073783;28;20472;-95
2022/10/02 07:27:51;;;;;;;1.10;0.93;;;23.40;67.10;;;;;;5074308;28;20443;-91
2022/10/02 07:30:18;;;;;;;2.23;0.90;;;23.40;67.20;;;;;;5074012;28;20437;-84
2022/10/02 07:32:51;;;;;;;0.90;0.80;;;23.40;67.40;;;;;;5074129;28;20979;-91
2022/10/02 07:35:31;;;;;;;1.00;0.90;;;23.40;67.30;;;;;;5073800;28;20924;-91
2022/10/02 07:38:16;;;;;;;0.90;0.80;;;23.40;67.10;;;;;;5073290;28;20448;-91
2022/10/02 07:40:58;;;;;;;0.90;0.80;;;23.40;67.30;;;;;;5073047;28;20441;-84
2022/10/02 07:43:39;;;;;;;1.00;0.90;;;23.40;67.30;;;;;;5072968;28;20467;-84
2022/10/02 07:46:16;;;;;;;0.93;0.83;;;23.50;67.30;;;;;;5072803;28;20484;-87
2022/10/02 07:49:01;;;;;;;1.10;1.00;;;23.40;67.10;;;;;;5072826;28;20452;-84
2022/10/02 07:51:49;;;;;;;1.00;0.90;;;23.40;67.00;;;;;;5073300;28;20447;-87
2022/10/02 07:54:46;;;;;;;2.10;1.00;;;23.40;67.10;;;;;;5073561;28;20441;-84
2022/10/02 07:57:26;;;;;;;2.40;1.10;;;23.40;67.00;;;;;;5073490;28;20483;-84
2022/10/02 07:59:58;;;;;;;0.90;0.80;;;23.40;67.10;;;;;;5073507;28;20444;-84
2022/10/02 08:02:29;;;;;;;1.00;0.90;;;23.50;67.30;;;;;;5073235;28;20504;-84
2022/10/02 08:05:02;;;;;;;0.90;0.80;;;23.40;67.10;;;;;;5072988;28;20484;-87
2022/10/02 08:07:30;;;;;;;0.80;0.80;;;23.40;67.10;;;;;;5073437;28;20444;-84
2022/10/02 08:10:01;;;;;;;1.00;0.90;;;23.40;67.10;;;;;;5073379;28;20445;-84
2022/10/02 08:12:35;;;;;;;1.10;1.00;;;23.40;67.10;;;;;;5073454;28;20433;-86
2022/10/02 08:15:05;;;;;;;1.07;0.97;;;23.40;67.00;;;;;;5073090;28;20444;-87
2022/10/02 08:17:37;;;;;;;0.90;0.80;;;23.40;67.00;;;;;;5073466;28;20437;-86
2022/10/02 08:20:15;;;;;;;1.17;0.87;;;23.60;67.20;;;;;;5072577;28;20441;-87
2022/10/02 08:22:47;;;;;;;1.30;1.03;;;23.40;67.10;;;;;;5073445;28;20459;-86
2022/10/02 08:25:23;;;;;;;1.10;1.00;;;23.40;67.20;;;;;;5073165;28;20484;-87
2022/10/02 08:27:55;;;;;;;1.30;1.20;;;23.40;67.20;;;;;;5073202;28;20969;-87
2022/10/02 08:30:22;;;;;;;1.10;0.90;;;23.50;67.20;;;;;;5072951;28;20535;-87
2022/10/02 08:32:49;;;;;;;1.00;0.90;;;23.50;67.10;;;;;;5073097;28;20539;-85
2022/10/02 08:35:19;;;;;;;1.77;0.80;;;23.40;67.40;;;;;;5072787;28;20513;-88
2022/10/02 08:38:12;;;;;;;2.57;1.00;;;23.40;67.40;;;;;;5072875;28;20518;-87
2022/10/02 08:41:19;;;;;;;1.10;1.00;;;23.40;67.40;;;;;;5072500;28;20535;-87
2022/10/02 08:44:14;;;;;;;1.13;1.03;;;23.50;68.40;;;;;;5072832;28;20454;-91
2022/10/02 08:47:14;;;;;;;2.80;1.23;;;23.40;67.50;;;;;;5072429;28;20864;-87
2022/10/02 08:50:18;;;;;;;1.07;0.97;;;23.40;67.40;;;;;;5072735;28;20522;-87
2022/10/02 08:53:20;;;;;;;1.10;1.00;;;23.40;67.50;;;;;;5076193;28;20447;-87
2022/10/02 08:56:06;;;;;;;2.03;0.90;;;23.40;67.60;;;;;;5066725;28;20460;-87
2022/10/02 08:59:04;;;;;;;0.87;0.83;;;23.50;67.70;;;;;;5076716;28;20443;-87
2022/10/02 09:02:18;;;;;;;1.10;0.90;;;23.40;67.60;;;;;;5079537;28;20931;-87
2022/10/02 09:05:22;;;;;;;1.53;1.10;;;23.40;67.60;;;;;;5003384;28;20529;-89
2022/10/02 09:08:18;;;;;;;4.80;1.10;;;23.40;67.70;;;;;;5076415;28;20535;-90
2022/10/02 09:11:22;;;;;;;3.20;1.10;;;23.40;67.70;;;;;;5076534;28;20494;-87
2022/10/02 09:14:29;;;;;;;1.30;1.10;;;23.40;67.70;;;;;;5076470;28;20440;-88
2022/10/02 09:17:15;;;;;;;1.30;0.90;;;23.40;67.70;;;;;;5071743;28;20535;-90
2022/10/02 09:19:55;;;;;;;2.27;1.47;;;23.40;68.60;;;;;;5081086;28;20440;-88
2022/10/02 09:22:47;;;;;;;1.23;1.00;;;23.40;67.80;;;;;;5082608;28;20424;-86
2022/10/02 09:25:27;;;;;;;1.20;1.10;;;23.40;67.70;;;;;;5076284;28;20553;-89
2022/10/02 09:28:39;;;;;;;1.30;1.20;;;23.40;67.70;;;;;;5076117;28;20907;-86
2022/10/02 09:31:53;;;;;;;2.40;1.23;;;23.40;67.70;;;;;;5075969;28;20436;-90
2022/10/02 09:35:01;;;;;;;1.30;1.00;;;23.40;67.80;;;;;;5014073;28;20443;-86
2022/10/02 09:38:10;;;;;;;2.80;1.10;;;23.40;67.80;;;;;;5076029;28;20444;-86
2022/10/02 09:41:09;;;;;;;1.10;1.00;;;23.50;67.90;;;;;;5075840;28;20859;-90
2022/10/02 09:44:05;;;;;;;1.90;1.20;;;23.40;67.80;;;;;;5063201;28;20916;-88
2022/10/02 09:47:07;;;;;;;1.50;1.33;;;23.40;67.80;;;;;;5075789;28;20495;-86
2022/10/02 09:50:10;;;;;;;3.53;1.03;;;23.40;67.80;;;;;;5075871;28;20440;-87
2022/10/02 09:53:20;;;;;;;3.30;1.37;;;23.50;67.90;;;;;;5075596;28;20441;-86
2022/10/02 09:56:30;;;;;;;1.30;1.20;;;23.40;67.80;;;;;;5075489;28;20447;-87
2022/10/02 09:59:32;;;;;;;1.40;1.10;;;23.40;67.80;;;;;;5046469;28;20453;-91
2022/10/02 10:02:27;;;;;;;1.63;1.03;;;23.40;67.90;;;;;;5062300;28;20467;-88
2022/10/02 10:05:30;;;;;;;1.10;1.00;;;23.40;67.90;;;;;;5075254;28;20468;-90
2022/10/02 10:08:22;;;;;;;1.30;1.20;;;23.40;67.90;;;;;;5075587;28;20535;-91
2022/10/02 10:11:15;;;;;;;1.27;1.17;;;23.40;67.90;;;;;;5075485;28;20440;-87
2022/10/02 10:14:20;;;;;;;1.23;1.13;;;23.40;67.90;;;;;;5075481;28;20450;-86
2022/10/02 10:17:24;;;;;;;1.73;1.20;;;23.40;68.00;;;;;;5075422;28;20452;-87
2022/10/02 10:20:13;;;;;;;1.93;1.20;;;23.40;67.90;;;;;;5073289;28;20459;-87
2022/10/02 10:23:07;;;;;;;1.90;1.40;;;23.40;68.00;;;;;;5075415;28;20498;-87
2022/10/02 10:26:00;;;;;;;1.10;1.00;;;23.40;67.90;;;;;;5074922;28;20476;-91
2022/10/02 10:29:21;;;;;;;1.10;1.00;;;23.40;68.00;;;;;;5075238;28;20440;-87
2022/10/02 10:32:42;;;;;;;1.30;1.20;;;23.40;67.90;;;;;;5075120;28;20429;-87
2022/10/02 10:35:23;;;;;;;2.50;1.07;;;23.40;68.00;;;;;;5075009;28;20635;-91
2022/10/02 10:41:25;;;;;;;2.30;1.00;;;23.40;68.00;;;;;;5074887;28;20428;-87
2022/10/02 10:44:28;;;;;;;3.53;1.40;;;23.40;68.10;;;;;;5074885;28;20801;-90
2022/10/02 10:47:29;;;;;;;1.63;1.20;;;23.40;68.00;;;;;;5074746;28;20492;-90
2022/10/02 10:50:22;;;;;;;1.23;1.13;;;23.40;68.00;;;;;;5074566;28;20458;-90
2022/10/02 10:53:13;;;;;;;1.40;1.13;;;23.40;68.00;;;;;;5074412;28;20437;-87
2022/10/02 10:56:12;;;;;;;1.40;1.23;;;23.40;68.00;;;;;;5074242;28;20455;-88
2022/10/02 10:59:03;;;;;;;1.47;1.10;;;23.40;68.00;;;;;;5071763;28;20966;-86
2022/10/02 11:01:42;;;;;;;1.50;1.20;;;23.40;68.00;;;;;;5074567;28;20444;-86
2022/10/02 11:04:38;;;;;;;1.10;1.00;;;23.40;68.80;;;;;;5074099;28;20464;-90
2022/10/02 11:07:20;;;;;;;1.70;1.40;;;23.40;67.90;;;;;;5074171;28;20491;-86
2022/10/02 11:10:06;;;;;;;1.27;1.17;;;23.40;68.00;;;;;;5074187;28;20445;-86
2022/10/02 11:13:01;;;;;;;1.87;1.00;;;23.40;68.00;;;;;;5073989;28;20440;-87
2022/10/02 11:16:05;;;;;;;1.23;1.13;;;23.40;68.00;;;;;;5074170;28;20440;-86
2022/10/02 11:18:45;;;;;;;1.40;0.87;;;23.50;68.10;;;;;;5074242;28;20843;-86
2022/10/02 11:21:36;;;;;;;1.00;0.83;;;23.40;68.00;;;;;;5073676;28;20428;-87
2022/10/02 11:24:33;;;;;;;1.20;1.10;;;23.50;68.10;;;;;;5074166;28;20539;-87
2022/10/02 11:27:25;;;;;;;1.73;1.00;;;23.50;68.20;;;;;;5068676;28;20525;-88
2022/10/02 11:30:20;;;;;;;1.53;1.13;;;23.50;68.10;;;;;;5065742;28;20452;-87
2022/10/02 11:33:38;;;;;;;1.13;1.03;;;23.50;68.10;;;;;;5074015;28;20506;-87
2022/10/02 11:36:22;;;;;;;1.30;1.20;;;23.50;68.00;;;;;;5058431;28;20449;-90
2022/10/02 11:39:16;;;;;;;1.10;1.00;;;23.50;68.10;;;;;;5073693;28;20900;-87
2022/10/02 11:42:17;;;;;;;1.90;1.00;;;23.50;68.00;;;;;;5073959;28;20432;-87
2022/10/02 11:45:03;;;;;;;2.20;1.20;;;23.50;68.10;;;;;;5073622;28;20448;-87
2022/10/02 11:47:55;;;;;;;1.30;1.00;;;23.40;68.10;;;;;;5073478;28;20570;-87
2022/10/02 11:50:47;;;;;;;1.40;1.03;;;23.40;68.00;;;;;;5073704;28;20828;-87
2022/10/02 11:53:34;;;;;;;1.20;1.10;;;23.40;68.00;;;;;;5073769;28;20998;-89
2022/10/02 11:56:23;;;;;;;1.13;1.03;;;23.40;68.00;;;;;;5073662;28;20464;-87
2022/10/02 11:59:03;;;;;;;2.37;1.10;;;23.50;68.20;;;;;;5073493;28;20444;-88
2022/10/02 12:01:40;;;;;;;1.13;1.03;;;23.50;68.20;;;;;;5073622;28;20446;-88
2022/10/02 12:04:28;;;;;;;1.00;0.90;;;23.40;68.00;;;;;;5073203;28;20472;-87
2022/10/02 12:07:22;;;;;;;1.33;1.00;;;23.50;68.10;;;;;;5073305;28;20494;-87
2022/10/02 12:10:03;;;;;;;2.23;1.20;;;23.50;68.20;;;;;;5067109;28;20458;-87
2022/10/02 12:12:44;;;;;;;1.10;0.97;;;23.50;68.20;;;;;;5073713;28;20899;-88
2022/10/02 12:15:22;;;;;;;1.43;1.00;;;23.50;68.20;;;;;;5073243;28;20435;-87
2022/10/02 12:18:04;;;;;;;3.60;1.10;;;23.50;68.20;;;;;;5073525;28;20460;-87
2022/10/02 12:27:02;;;;;;;1.07;0.97;;;23.50;68.20;;;;;;5076029;28;20604;-87
2022/10/02 12:29:57;;;;;;;1.53;0.93;;;23.40;68.10;;;;;;5077416;28;20852;-90
2022/10/02 12:32:38;;;;;;;1.20;1.00;;;23.40;68.10;;;;;;5077303;28;20468;-87
2022/10/02 12:35:20;;;;;;;1.37;1.00;;;23.40;68.10;;;;;;5077045;28;20502;-87
2022/10/02 12:37:58;;;;;;;1.20;1.10;;;23.50;68.20;;;;;;5077073;28;20440;-87
2022/10/02 12:40:31;;;;;;;1.50;1.20;;;23.50;68.10;;;;;;5077218;28;20458;-87
2022/10/02 12:43:25;;;;;;;1.20;1.00;;;23.50;68.10;;;;;;5076866;28;20439;-87
2022/10/02 12:46:16;;;;;;;1.30;1.20;;;23.50;68.00;;;;;;5077000;28;20503;-87
2022/10/02 12:49:05;;;;;;;1.20;1.10;;;23.50;68.00;;;;;;5077043;28;20445;-87
2022/10/02 12:51:38;;;;;;;1.57;1.10;;;23.50;68.10;;;;;;5067269;28;20476;-86
2022/10/02 12:54:57;;;;;;;1.20;1.10;;;23.50;68.10;;;;;;5076845;28;20472;-87
2022/10/02 12:57:53;;;;;;;1.20;1.00;;;23.50;68.00;;;;;;5076713;28;20441;-87
2022/10/02 13:00:23;;;;;;;2.03;1.10;;;23.50;68.10;;;;;;5076712;28;20444;-88
2022/10/02 13:03:34;;;;;;;1.10;0.80;;;23.40;68.00;;;;;;5076667;28;20779;-87
2022/10/02 13:06:43;;;;;;;1.67;0.80;;;23.50;68.00;;;;;;5069947;28;20549;-87
2022/10/02 13:09:33;;;;;;;1.20;1.10;;;23.50;68.10;;;;;;5076340;28;20444;-87
2022/10/02 13:12:12;;;;;;;1.00;0.80;;;23.50;68.20;;;;;;5076485;28;20481;-88
2022/10/02 13:15:08;;;;;;;1.10;1.00;;;23.50;68.20;;;;;;5076659;28;20424;-91
2022/10/02 13:17:44;;;;;;;1.00;0.90;;;23.50;68.10;;;;;;5057646;28;20506;-90
2022/10/02 13:20:19;;;;;;;1.27;1.10;;;23.50;68.20;;;;;;5076474;28;20494;-87
2022/10/02 13:22:57;;;;;;;1.37;1.00;;;23.50;68.10;;;;;;5076544;28;20428;-88
2022/10/02 13:25:35;;;;;;;1.17;1.07;;;23.50;68.90;;;;;;5076107;28;20444;-87
2022/10/02 13:28:22;;;;;;;1.10;1.00;;;23.50;68.10;;;;;;5076314;28;20450;-87
2022/10/02 13:30:58;;;;;;;1.30;1.17;;;23.50;68.10;;;;;;5076372;28;20759;-87
2022/10/02 13:33:55;;;;;;;1.43;1.00;;;23.50;68.10;;;;;;5075878;28;20457;-87
2022/10/02 13:36:34;;;;;;;1.20;1.10;;;23.50;68.00;;;;;;5075322;28;20444;-87
2022/10/02 13:39:16;;;;;;;1.13;1.00;;;23.50;68.10;;;;;;5076203;28;20478;-87
2022/10/02 13:42:01;;;;;;;1.10;1.00;;;23.50;68.00;;;;;;5075724;28;20893;-87
2022/10/02 13:44:36;;;;;;;1.30;1.00;;;23.50;68.00;;;;;;5076092;28;20523;-91
2022/10/02 13:47:27;;;;;;;1.13;0.90;;;23.50;68.10;;;;;;5075587;28;20484;-87
2022/10/02 13:50:09;;;;;;;1.77;1.10;;;23.50;67.90;;;;;;5075838;28;20444;-87
2022/10/02 13:52:47;;;;;;;1.60;1.00;;;23.50;68.00;;;;;;5075810;28;20439;-90
2022/10/02 13:55:24;;;;;;;1.23;1.00;;;23.60;68.20;;;;;;5075500;28;20923;-89
2022/10/02 13:58:04;;;;;;;1.20;1.03;;;23.50;68.00;;;;;;5075453;28;21003;-86
2022/10/02 14:00:58;;;;;;;1.50;1.20;;;23.50;68.00;;;;;;5075660;28;20532;-88
2022/10/02 14:03:40;;;;;;;1.70;1.10;;;23.50;67.90;;;;;;5075385;28;20540;-90
2022/10/02 14:06:14;;;;;;;1.10;0.90;;;23.50;68.00;;;;;;5075263;28;20904;-90
2022/10/02 14:09:00;;;;;;;1.27;1.10;;;23.50;68.00;;;;;;5075233;28;20428;-86
2022/10/02 14:11:42;;;;;;;1.03;0.90;;;23.50;68.00;;;;;;5075473;28;20440;-89
2022/10/02 14:14:20;;;;;;;1.00;0.90;;;23.50;67.90;;;;;;5075490;28;20437;-86